Time;durP1;ratioP1;P1;durP2;ratioP2;P2;SDS_P1;SDS_P2;PMS_P1;PMS_P2;Temp;Humidity;BMP_temperature;BMP_pressure;BME280_temperature;BME280_humidity;BME280_pressure;Samples;Min_cycle;Max_cycle;Signal;HPM_P1;HPM_P2
2022/10/05 00:01:23;;;;;;;9.50;2.15;;;;;;;12.17;100.00;100965.63;5200670;28;20029;-73
2022/10/05 00:04:01;;;;;;;6.68;2.13;;;;;;;12.18;100.00;100969.97;5180108;28;20036;-74
2022/10/05 00:06:31;;;;;;;4.07;2.20;;;;;;;12.28;100.00;100973.09;5177687;28;20021;-74
2022/10/05 00:09:09;;;;;;;6.25;2.28;;;;;;;12.29;100.00;100975.66;5180019;28;20036;-74
2022/10/05 00:11:40;;;;;;;4.95;2.15;;;;;;;12.29;100.00;100974.81;5175816;28;20025;-74
2022/10/05 00:14:20;;;;;;;5.07;1.95;;;;;;;12.46;100.00;100968.03;5180903;28;20036;-75
2022/10/05 00:16:50;;;;;;;4.95;2.10;;;;;;;12.51;100.00;100966.09;5183303;28;20040;-74
2022/10/05 00:19:37;;;;;;;4.70;1.80;;;;;;;12.54;100.00;100970.38;5183910;28;20021;-74
2022/10/05 00:22:08;;;;;;;7.93;2.20;;;;;;;12.50;100.00;100964.38;5183945;28;20033;-74
2022/10/05 00:24:38;;;;;;;3.97;1.98;;;;;;;12.51;100.00;100970.47;5183404;28;20033;-73
2022/10/05 00:27:30;;;;;;;4.65;2.00;;;;;;;12.55;100.00;100964.19;5183618;28;20091;-74
2022/10/05 00:30:11;;;;;;;4.30;2.03;;;;;;;12.64;100.00;100954.22;5182775;28;20111;-74
2022/10/05 00:32:43;;;;;;;5.95;2.15;;;;;;;12.65;100.00;100958.56;5180035;28;20523;-73
2022/10/05 00:35:15;;;;;;;5.80;2.00;;;;;;;12.65;100.00;100955.09;5183453;28;20065;-74
2022/10/05 00:37:51;;;;;;;4.10;1.88;;;;;;;12.69;100.00;100949.69;5182185;28;20492;-74
2022/10/05 00:40:47;;;;;;;4.55;1.90;;;;;;;12.64;100.00;100954.22;5169143;28;20034;-73
2022/10/05 00:43:46;;;;;;;7.25;2.13;;;;;;;12.61;100.00;100964.84;5171025;28;20041;-73
2022/10/05 00:46:43;;;;;;;5.20;2.00;;;;;;;12.66;100.00;100954.19;5180567;28;20032;-74
2022/10/05 00:49:29;;;;;;;4.10;1.85;;;;;;;12.67;100.00;100954.09;5176397;28;20479;-74
2022/10/05 00:52:06;;;;;;;8.25;1.90;;;;;;;12.72;100.00;100948.69;5198811;28;20045;-74
2022/10/05 00:54:44;;;;;;;6.03;1.90;;;;;;;12.68;100.00;100949.72;5183376;28;20548;-74
2022/10/05 00:58:04;;;;;;;4.75;1.90;;;;;;;12.58;100.00;100951.84;5180122;28;20061;-73
2022/10/05 01:00:57;;;;;;;15.30;2.60;;;;;;;12.54;100.00;100952.00;5147340;28;20045;-74
2022/10/05 01:03:56;;;;;;;4.53;1.90;;;;;;;12.67;100.00;100948.03;5181599;28;20029;-73
2022/10/05 01:06:55;;;;;;;6.63;2.03;;;;;;;12.70;100.00;100947.91;5173567;28;20132;-72
2022/10/05 01:09:59;;;;;;;6.28;1.83;;;;;;;12.68;100.00;100945.34;5181535;28;20443;-73
2022/10/05 01:12:29;;;;;;;5.85;2.30;;;;;;;12.65;100.00;100945.44;5182070;28;20180;-73
2022/10/05 01:15:18;;;;;;;5.87;2.33;;;;;;;12.64;100.00;100950.75;5182995;28;20032;-74
2022/10/05 01:17:52;;;;;;;4.15;1.73;;;;;;;12.61;100.00;100950.88;5195130;28;20367;-73
2022/10/05 01:20:38;;;;;;;5.13;1.85;;;;;;;12.59;100.00;100956.19;5182387;28;20030;-73
2022/10/05 01:23:35;;;;;;;5.80;1.85;;;;;;;12.56;100.00;100953.69;5182581;28;20451;-74
2022/10/05 01:26:36;;;;;;;4.88;1.88;;;;;;;12.50;100.00;100939.94;5181055;28;20403;-73
2022/10/05 01:29:14;;;;;;;5.65;2.10;;;;;;;12.52;100.00;100957.34;5182674;28;20598;-74
2022/10/05 01:32:32;;;;;;;6.70;1.80;;;;;;;12.48;100.00;100953.09;5178867;28;20072;-74
2022/10/05 01:35:08;;;;;;;5.32;2.03;;;;;;;12.47;100.00;100943.50;5146769;28;20523;-74
2022/10/05 01:37:51;;;;;;;4.78;1.90;;;;;;;12.38;100.00;100943.88;5181887;28;20030;-73
2022/10/05 01:41:19;;;;;;;5.28;1.95;;;;;;;12.26;100.00;100954.78;5179956;28;20030;-73
2022/10/05 01:44:02;;;;;;;;;;;;;;;12.14;100.00;100950.00;5119650;29;20030;-73
2022/10/05 01:46:42;;;;;;;5.75;1.98;;;;;;;12.09;100.00;100957.16;5118248;29;19945;-74
2022/10/05 01:49:27;;;;;;;4.13;2.20;;;;;;;12.06;100.00;100956.41;5160831;28;20073;-74
2022/10/05 01:52:21;;;;;;;5.93;2.07;;;;;;;12.10;100.00;100948.41;5196899;28;20172;-74
2022/10/05 01:55:21;;;;;;;5.43;1.88;;;;;;;11.99;100.00;100955.78;5180188;28;20315;-74
2022/10/05 01:58:10;;;;;;;6.45;1.92;;;;;;;11.89;100.00;100943.91;5179682;28;20104;-74
2022/10/05 02:00:58;;;;;;;4.68;2.30;;;;;;;11.82;100.00;100947.66;5179096;28;20040;-74
2022/10/05 02:03:38;;;;;;;4.78;2.17;;;;;;;11.83;100.00;100949.38;5182554;28;20045;-73
2022/10/05 02:06:17;;;;;;;6.28;2.47;;;;;;;11.83;100.00;100946.78;5181534;28;20104;-73
2022/10/05 02:08:53;;;;;;;9.77;2.30;;;;;;;11.86;100.00;100951.03;5177451;28;20026;-73
2022/10/05 02:11:23;;;;;;;5.15;2.20;;;;;;;11.86;100.00;100944.03;5181314;28;20030;-74
2022/10/05 02:14:17;;;;;;;4.70;2.22;;;;;;;11.91;100.00;100941.22;5181924;28;20383;-73
2022/10/05 02:16:50;;;;;;;4.72;2.20;;;;;;;11.97;100.00;100935.78;5178833;28;20025;-74
2022/10/05 02:19:30;;;;;;;6.93;2.42;;;;;;;12.03;100.00;100938.19;5181218;28;20076;-74
2022/10/05 02:22:11;;;;;;;5.45;1.92;;;;;;;12.19;100.00;100936.72;5181632;28;20399;-74
2022/10/05 02:24:56;;;;;;;4.53;2.17;;;;;;;12.24;100.00;100932.16;5177987;28;20037;-74
2022/10/05 02:27:31;;;;;;;7.78;2.30;;;;;;;12.25;100.00;100920.78;5180991;28;20061;-74
2022/10/05 02:30:05;;;;;;;7.88;2.30;;;;;;;12.32;100.00;100928.34;5179129;28;20033;-74
2022/10/05 02:32:58;;;;;;;7.45;2.05;;;;;;;12.41;100.00;100908.81;5181645;28;20180;-74
2022/10/05 02:35:29;;;;;;;5.68;2.53;;;;;;;12.43;100.00;100909.63;5179234;28;20034;-74
2022/10/05 02:38:17;;;;;;;7.13;2.20;;;;;;;12.46;100.00;100906.88;5180411;28;20021;-74
2022/10/05 02:41:11;;;;;;;6.03;2.03;;;;;;;12.43;100.00;100899.97;5178337;28;20100;-74
2022/10/05 02:43:50;;;;;;;5.95;2.15;;;;;;;12.43;100.00;100892.13;5177724;28;20036;-74
2022/10/05 02:46:33;;;;;;;6.63;2.28;;;;;;;12.36;100.00;100885.41;5181059;28;20079;-74
2022/10/05 02:49:36;;;;;;;7.18;2.63;;;;;;;12.31;100.00;100882.09;5181118;28;20038;-74
2022/10/05 02:52:09;;;;;;;6.00;2.22;;;;;;;12.25;100.00;100874.47;5180764;28;20026;-73
2022/10/05 02:55:14;;;;;;;4.75;2.15;;;;;;;12.20;100.00;100871.19;5177493;28;20076;-74
2022/10/05 02:58:15;;;;;;;9.02;2.30;;;;;;;12.17;100.00;100866.06;5177820;28;20032;-74
2022/10/05 03:00:52;;;;;;;4.70;2.28;;;;;;;12.15;100.00;100865.22;5170219;28;20068;-73
2022/10/05 03:03:36;;;;;;;5.15;2.20;;;;;;;12.15;100.00;100861.78;5181491;28;20060;-74
2022/10/05 03:06:19;;;;;;;7.05;2.47;;;;;;;12.09;100.00;100862.84;5180918;28;20053;-73
2022/10/05 03:08:55;;;;;;;5.75;2.40;;;;;;;12.06;100.00;100872.56;5178569;28;20033;-74
2022/10/05 03:11:57;;;;;;;6.38;2.50;;;;;;;12.08;100.00;100876.88;5180786;28;20064;-74
2022/10/05 03:14:48;;;;;;;6.63;2.40;;;;;;;12.13;100.00;100868.84;5179330;28;20029;-74
2022/10/05 03:17:24;;;;;;;7.05;2.60;;;;;;;12.08;100.00;100876.88;5177385;28;20516;-74
2022/10/05 03:20:18;;;;;;;5.35;2.20;;;;;;;12.08;100.00;100878.63;5180230;28;20475;-74
2022/10/05 03:22:53;;;;;;;6.97;2.42;;;;;;;12.07;100.00;100877.78;5177737;28;20029;-74
2022/10/05 03:25:42;;;;;;;6.07;2.85;;;;;;;12.07;100.00;100876.91;5180238;28;20084;-74
2022/10/05 03:28:37;;;;;;;5.03;2.33;;;;;;;12.09;100.00;100875.94;5176458;28;20456;-73
2022/10/05 03:31:21;;;;;;;5.97;2.47;;;;;;;12.11;100.00;100866.25;5179803;28;20472;-74
2022/10/05 03:33:57;;;;;;;5.63;2.47;;;;;;;12.13;100.00;100869.69;5178247;28;20041;-73
2022/10/05 03:36:30;;;;;;;6.80;2.60;;;;;;;12.16;100.00;100855.63;5179761;28;20088;-74
2022/10/05 03:39:39;;;;;;;6.22;2.55;;;;;;;12.12;100.00;100846.16;5180273;28;20170;-74
2022/10/05 03:42:19;;;;;;;3.78;2.08;;;;;;;12.10;100.00;100859.31;5175480;28;20112;-75
2022/10/05 03:45:08;;;;;;;5.22;2.45;;;;;;;12.11;100.00;100855.78;5180413;28;20045;-73
2022/10/05 03:47:55;;;;;;;5.95;2.38;;;;;;;12.15;100.00;100841.66;5179558;28;20491;-73
2022/10/05 03:50:37;;;;;;;6.38;2.60;;;;;;;12.10;100.00;100853.25;5176504;28;20037;-74
2022/10/05 03:53:13;;;;;;;8.98;2.90;;;;;;;12.07;100.00;100850.72;5178618;28;20026;-72
2022/10/05 03:56:23;;;;;;;9.50;3.10;;;;;;;12.01;100.00;100849.19;5177152;28;20357;-74
2022/10/05 03:58:59;;;;;;;4.53;2.55;;;;;;;12.02;100.00;100855.28;5165086;28;20052;-74
2022/10/05 04:01:39;;;;;;;6.00;2.58;;;;;;;12.00;100.00;100841.38;5178489;28;20033;-74
2022/10/05 04:04:18;;;;;;;7.55;2.72;;;;;;;12.08;100.00;100845.41;5176521;28;20033;-74
2022/10/05 04:06:52;;;;;;;8.57;3.10;;;;;;;12.02;100.00;100829.94;5179069;28;20500;-73
2022/10/05 04:09:28;;;;;;;5.30;2.67;;;;;;;12.04;100.00;100833.34;5180016;28;20192;-74
2022/10/05 04:12:18;;;;;;;6.78;2.40;;;;;;;12.07;100.00;100835.84;5180266;28;20094;-73
2022/10/05 04:14:53;;;;;;;6.30;2.50;;;;;;;12.17;100.00;100836.38;5177456;28;20079;-74
2022/10/05 04:17:38;;;;;;;5.97;2.67;;;;;;;12.09;100.00;100831.41;5179125;28;20037;-73
2022/10/05 04:20:17;;;;;;;7.80;2.70;;;;;;;12.04;100.00;100833.34;5175605;28;20588;-73
2022/10/05 04:22:57;;;;;;;9.40;3.15;;;;;;;12.07;100.00;100830.63;5179839;28;20479;-74
2022/10/05 04:25:42;;;;;;;7.60;3.03;;;;;;;12.17;100.00;100824.13;5179878;28;20576;-73
2022/10/05 04:28:24;;;;;;;8.85;2.83;;;;;;;12.05;100.00;100821.97;5175225;28;20514;-73
2022/10/05 04:30:54;;;;;;;6.20;3.00;;;;;;;12.00;100.00;100823.91;5178949;28;20038;-74
2022/10/05 04:33:26;;;;;;;7.45;3.33;;;;;;;11.98;100.00;100828.31;5179101;28;20281;-74
2022/10/05 04:36:05;;;;;;;6.43;3.08;;;;;;;12.00;100.00;100826.53;5178838;28;20028;-73
2022/10/05 04:39:15;;;;;;;5.18;2.97;;;;;;;12.02;100.00;100827.31;5179127;28;20030;-73
2022/10/05 04:42:02;;;;;;;8.68;2.80;;;;;;;11.98;100.00;100819.63;5176823;28;20034;-74
2022/10/05 04:44:37;;;;;;;5.75;2.80;;;;;;;12.06;100.00;100813.19;5179512;28;20488;-74
2022/10/05 04:47:25;;;;;;;5.67;3.03;;;;;;;11.97;100.00;100813.53;5179714;28;20026;-74
2022/10/05 04:49:59;;;;;;;5.95;2.78;;;;;;;12.02;100.00;100803.75;5175936;28;20499;-73
2022/10/05 04:53:04;;;;;;;6.97;2.97;;;;;;;11.91;100.00;100800.66;5178939;28;20117;-74
2022/10/05 04:55:56;;;;;;;9.00;3.20;;;;;;;11.78;100.00;100788.94;5151894;28;20049;-73
2022/10/05 04:58:58;;;;;;;5.38;2.80;;;;;;;11.74;100.00;100783.84;5176187;28;20030;-74
2022/10/05 05:01:49;;;;;;;10.50;3.38;;;;;;;11.70;100.00;100795.34;5179873;28;20030;-73
2022/10/05 05:04:28;;;;;;;7.28;3.20;;;;;;;11.73;100.00;100790.88;5180899;28;20048;-74
2022/10/05 05:07:23;;;;;;;5.32;2.72;;;;;;;11.78;100.00;100790.72;5198454;28;20151;-73
2022/10/05 05:10:13;;;;;;;9.85;3.97;;;;;;;11.79;100.00;100790.63;5181210;28;20088;-74
2022/10/05 05:13:05;;;;;;;6.75;3.22;;;;;;;11.76;100.00;100798.63;5173063;28;20032;-74
2022/10/05 05:16:21;;;;;;;6.88;3.28;;;;;;;11.72;100.00;100793.53;5183089;28;20026;-74
2022/10/05 05:19:07;;;;;;;8.82;3.17;;;;;;;11.67;100.00;100785.88;5171243;28;20045;-74
2022/10/05 05:22:09;;;;;;;9.32;3.88;;;;;;;11.71;100.00;100787.47;5182047;28;20495;-74
2022/10/05 05:24:58;;;;;;;5.57;3.40;;;;;;;11.76;100.00;100790.75;5194046;28;20396;-74
2022/10/05 05:27:37;;;;;;;10.23;3.80;;;;;;;11.72;100.00;100786.56;5181987;28;20072;-74
2022/10/05 05:30:07;;;;;;;7.85;3.97;;;;;;;11.64;100.00;100792.97;5182014;28;20475;-74
2022/10/05 05:32:53;;;;;;;8.63;3.50;;;;;;;11.62;100.00;100800.03;5182184;28;20053;-73
2022/10/05 05:35:47;;;;;;;8.98;3.63;;;;;;;11.61;100.00;100800.94;5179681;28;20281;-74
2022/10/05 05:38:31;;;;;;;5.50;3.50;;;;;;;11.64;100.00;100803.44;5178770;28;20384;-73
2022/10/05 05:41:11;;;;;;;7.45;4.00;;;;;;;11.54;100.00;100810.75;5180866;28;20026;-73
2022/10/05 05:44:02;;;;;;;7.30;3.72;;;;;;;11.60;100.00;100815.78;5178492;28;20450;-74
2022/10/05 05:46:38;;;;;;;8.23;3.95;;;;;;;11.61;100.00;100816.66;5181718;28;20036;-72
2022/10/05 05:49:20;;;;;;;7.80;3.70;;;;;;;11.59;100.00;100816.69;5181879;28;20578;-73
2022/10/05 05:51:59;;;;;;;9.65;3.90;;;;;;;11.61;100.00;100812.25;5179963;28;20492;-73
2022/10/05 05:54:40;;;;;;;10.45;4.10;;;;;;;11.70;100.00;100816.31;5182000;28;20040;-74
2022/10/05 05:57:15;;;;;;;7.32;3.35;;;;;;;11.66;100.00;100815.59;5177853;28;20507;-73
2022/10/05 05:59:52;;;;;;;16.27;7.40;;;;;;;11.66;100.00;100815.59;5182147;28;20072;-74
2022/10/05 06:02:50;;;;;;;9.90;4.80;;;;;;;11.75;100.00;100817.84;5182216;28;20049;-74
2022/10/05 06:05:40;;;;;;;8.02;4.00;;;;;;;11.79;100.00;100823.84;5178293;28;20517;-74
2022/10/05 06:08:35;;;;;;;5.88;3.83;;;;;;;11.81;100.00;100816.78;5177637;28;20104;-73
2022/10/05 06:11:22;;;;;;;7.47;4.10;;;;;;;11.79;100.00;100806.34;5182222;28;20391;-74
2022/10/05 06:13:57;;;;;;;9.23;3.95;;;;;;;11.83;100.00;100820.19;5178557;28;20112;-74
2022/10/05 06:16:37;;;;;;;7.60;3.95;;;;;;;11.94;100.00;100821.50;5181360;28;20495;-73
2022/10/05 06:19:12;;;;;;;6.32;3.60;;;;;;;12.07;100.00;100827.13;5181564;28;20407;-74
2022/10/05 06:21:47;;;;;;;6.53;3.78;;;;;;;12.22;100.00;100830.03;5178467;28;20032;-74
2022/10/05 06:24:24;;;;;;;8.70;4.03;;;;;;;12.30;100.00;100821.88;5180580;28;20061;-72
2022/10/05 06:27:22;;;;;;;8.10;3.65;;;;;;;12.40;100.00;100820.59;5181611;28;20022;-73
2022/10/05 06:30:13;;;;;;;7.28;3.92;;;;;;;12.38;100.00;100827.66;5179652;28;20123;-74
2022/10/05 06:33:15;;;;;;;7.95;3.88;;;;;;;12.54;100.00;100832.28;5192564;28;20029;-74
2022/10/05 06:36:06;;;;;;;8.02;3.40;;;;;;;12.69;100.00;100834.28;5178540;28;20033;-74
2022/10/05 06:38:46;;;;;;;7.65;3.60;;;;;;;12.93;100.00;100823.66;5180716;28;20026;-74
2022/10/05 06:41:31;;;;;;;9.05;3.42;;;;;;;12.99;100.00;100822.56;5178074;28;20084;-74
2022/10/05 06:44:08;;;;;;;6.22;3.50;;;;;;;12.99;100.00;100819.94;5180702;28;20538;-74
2022/10/05 06:47:00;;;;;;;6.43;3.42;;;;;;;13.22;100.00;100817.22;5179704;28;20037;-74
2022/10/05 06:49:49;;;;;;;6.93;3.33;;;;;;;13.30;100.00;100826.47;5178415;28;20033;-74
2022/10/05 06:52:37;;;;;;;6.57;2.90;;;;;;;13.57;100.00;100821.81;5172013;28;20369;-74
2022/10/05 06:55:10;;;;;;;8.77;3.25;;;;;;;13.75;100.00;100821.00;5180284;28;20103;-74
2022/10/05 06:58:01;;;;;;;7.88;3.30;;;;;;;14.03;100.00;100821.44;5175889;28;20400;-74
2022/10/05 07:00:58;;;;;;;7.70;3.30;;;;;;;14.31;100.00;100827.19;5181207;28;20034;-74
2022/10/05 07:03:47;;;;;;;;;;;;;;;14.59;100.00;100831.06;5180142;28;20399;-73
2022/10/05 07:06:24;;;;;;;7.15;3.10;;;;;;;14.77;100.00;100831.97;5180010;28;19913;-74
2022/10/05 07:09:13;;;;;;;6.70;3.30;;;;;;;14.88;100.00;100831.34;5180748;28;20024;-74
2022/10/05 07:11:55;;;;;;;6.07;3.20;;;;;;;15.49;100.00;100824.75;5177081;28;20062;-74
2022/10/05 07:14:42;;;;;;;8.38;3.50;;;;;;;15.88;95.99;100814.75;5180828;28;20403;-75
2022/10/05 07:17:38;;;;;;;7.30;3.08;;;;;;;16.81;93.56;100814.84;5176803;28;20030;-74
2022/10/05 07:20:18;;;;;;;5.70;2.67;;;;;;;17.54;89.56;100814.88;5180496;28;20025;-74
2022/10/05 07:23:10;;;;;;;8.20;2.70;;;;;;;17.88;86.74;100810.09;5178193;28;20064;-74
2022/10/05 07:26:19;;;;;;;8.63;3.20;;;;;;;17.21;87.45;100811.56;5176604;28;20101;-74
2022/10/05 07:29:17;;;;;;;7.82;2.70;;;;;;;17.99;83.81;100812.91;5177805;28;20092;-75
2022/10/05 07:32:05;;;;;;;5.40;2.47;;;;;;;18.48;83.13;100806.28;5177754;28;20702;-75
2022/10/05 07:34:45;;;;;;;6.40;2.90;;;;;;;19.83;77.91;100792.63;5180341;28;20091;-74
2022/10/05 07:40:24;;;;;;;4.55;2.45;;;;;;;20.89;74.42;100797.25;5180290;28;20100;-75
2022/10/05 07:43:01;;;;;;;4.38;2.35;;;;;;;22.02;70.08;100798.16;5180508;28;20559;-74
2022/10/05 07:45:50;;;;;;;6.63;2.42;;;;;;;21.52;70.83;100792.38;5180271;28;20061;-75
2022/10/05 07:48:27;;;;;;;9.55;2.60;;;;;;;22.07;70.45;100790.63;5178433;28;20029;-75
2022/10/05 07:51:37;;;;;;;5.38;2.22;;;;;;;22.60;68.60;100800.50;5179756;28;20114;-74
2022/10/05 07:54:31;;;;;;;8.27;2.17;;;;;;;23.20;66.51;100799.00;5179438;28;20103;-74
2022/10/05 07:57:39;;;;;;;7.25;2.10;;;;;;;22.27;69.20;100805.03;5179303;28;20026;-73
2022/10/05 08:00:16;;;;;;;5.05;2.20;;;;;;;23.31;67.64;100801.63;5176559;28;20518;-73
2022/10/05 08:03:00;;;;;;;6.63;2.60;;;;;;;22.42;68.07;100802.00;5180277;28;20025;-73
2022/10/05 08:05:41;;;;;;;4.93;2.03;;;;;;;22.97;68.72;100797.38;5179594;28;20030;-73
2022/10/05 08:08:23;;;;;;;5.15;2.20;;;;;;;21.09;72.93;100800.09;5175966;28;20091;-71
2022/10/05 08:11:19;;;;;;;5.53;2.10;;;;;;;20.26;76.78;100804.56;5179774;28;20029;-72
2022/10/05 08:14:04;;;;;;;6.40;2.22;;;;;;;19.05;81.54;100802.47;5169455;28;20050;-73
2022/10/05 08:16:37;;;;;;;6.45;2.47;;;;;;;18.95;80.79;100807.50;5179825;28;20403;-72
2022/10/05 08:19:28;;;;;;;5.50;2.28;;;;;;;17.70;87.21;100811.25;5180078;28;20080;-73
2022/10/05 08:22:04;;;;;;;4.38;2.40;;;;;;;18.27;83.52;100804.09;5178593;28;20395;-72
2022/10/05 08:24:57;;;;;;;6.70;2.30;;;;;;;19.46;81.02;100796.09;5180417;28;20034;-72
2022/10/05 08:27:45;;;;;;;7.95;2.95;;;;;;;19.32;80.91;100801.50;5193128;28;20030;-72
2022/10/05 08:30:16;;;;;;;5.93;2.70;;;;;;;19.02;81.14;100800.00;5171529;28;20061;-72
2022/10/05 08:33:11;;;;;;;5.50;2.47;;;;;;;18.70;81.35;100800.44;5180081;28;20073;-71
2022/10/05 08:35:54;;;;;;;5.35;2.50;;;;;;;18.85;82.36;100805.56;5177232;28;20072;-72
2022/10/05 08:38:31;;;;;;;5.90;2.58;;;;;;;18.38;82.74;100806.97;5183318;28;20048;-72
2022/10/05 08:41:04;;;;;;;7.47;2.72;;;;;;;17.78;85.14;100808.09;5175424;28;20087;-74
2022/10/05 08:43:53;;;;;;;7.32;2.92;;;;;;;17.91;84.12;100811.69;5183894;28;20037;-74
2022/10/05 08:46:30;;;;;;;5.13;2.40;;;;;;;18.00;85.35;100805.84;5181621;28;20029;-73
2022/10/05 08:49:09;;;;;;;6.53;2.80;;;;;;;17.55;86.49;100811.28;5184015;28;20373;-73
2022/10/05 08:52:16;;;;;;;3.92;2.33;;;;;;;17.56;87.25;100813.00;5184087;28;20026;-74
2022/10/05 08:55:18;;;;;;;6.82;3.03;;;;;;;17.25;87.32;100813.09;5180756;28;20110;-74
2022/10/05 08:57:49;;;;;;;9.40;2.70;;;;;;;17.53;87.48;100826.41;5175535;28;20083;-73
2022/10/05 09:00:22;;;;;;;4.63;2.77;;;;;;;18.04;85.03;100816.13;5184002;28;20033;-74
2022/10/05 09:03:10;;;;;;;5.75;3.30;;;;;;;17.64;85.67;100816.88;5183807;28;20364;-74
2022/10/05 09:05:59;;;;;;;4.22;2.83;;;;;;;18.12;84.82;100813.00;5179702;28;20180;-74
2022/10/05 09:08:57;;;;;;;12.82;3.28;;;;;;;18.63;83.21;100815.00;5198049;28;20471;-74
2022/10/05 09:11:31;;;;;;;6.72;2.78;;;;;;;18.95;82.24;100815.47;5198115;28;20128;-74
2022/10/05 09:14:10;;;;;;;5.43;2.85;;;;;;;19.05;81.60;100816.56;5183668;28;20026;-74
2022/10/05 09:17:14;;;;;;;5.38;2.90;;;;;;;18.78;81.79;100814.88;5179297;28;20030;-74
2022/10/05 09:20:05;;;;;;;7.47;2.80;;;;;;;19.28;83.39;100815.91;5174003;28;20040;-74
2022/10/05 09:22:42;;;;;;;5.47;3.22;;;;;;;18.70;82.18;100814.53;5183502;28;20033;-74
2022/10/05 09:25:41;;;;;;;6.30;2.60;;;;;;;18.73;83.08;100813.47;5179696;28;20041;-74
2022/10/05 09:28:21;;;;;;;4.85;2.83;;;;;;;18.92;83.83;100807.72;5179266;28;20088;-74
2022/10/05 09:31:06;;;;;;;6.55;2.70;;;;;;;19.13;81.90;100805.47;5183576;28;20181;-74
2022/10/05 09:34:40;;;;;;;9.20;3.00;;;;;;;19.04;82.50;100804.28;5183078;28;20038;-74
2022/10/05 09:37:24;;;;;;;7.05;2.97;;;;;;;18.87;83.16;100806.31;5159268;28;20460;-74
2022/10/05 09:40:40;;;;;;;5.25;2.78;;;;;;;19.19;83.89;100805.94;5181186;28;20061;-74
2022/10/05 09:43:48;;;;;;;5.75;2.70;;;;;;;19.46;82.14;100806.69;5154932;28;20044;-73
2022/10/05 09:46:27;;;;;;;4.75;2.78;;;;;;;19.17;82.59;100807.84;5179864;28;20022;-74
2022/10/05 09:49:35;;;;;;;6.68;3.20;;;;;;;18.54;82.42;100820.91;5182201;28;20483;-74
2022/10/05 09:52:20;;;;;;;4.53;2.95;;;;;;;18.57;83.53;100823.38;5182261;28;20049;-74
2022/10/05 09:55:28;;;;;;;7.03;3.03;;;;;;;18.40;83.97;100815.66;5179990;28;20722;-74
2022/10/05 09:58:43;;;;;;;8.40;3.60;;;;;;;18.27;84.89;100817.34;5181085;28;20036;-74
2022/10/05 10:01:50;;;;;;;8.15;2.95;;;;;;;18.28;85.29;100821.72;5174721;28;20424;-74
2022/10/05 10:04:36;;;;;;;8.65;3.78;;;;;;;18.23;84.80;100810.53;5179549;28;20030;-74
2022/10/05 10:07:22;;;;;;;7.72;3.70;;;;;;;17.75;85.94;100817.09;5182015;28;20395;-73
2022/10/05 10:10:12;;;;;;;6.72;3.78;;;;;;;17.71;85.80;100820.00;5180082;28;20041;-74
2022/10/05 10:13:04;;;;;;;9.98;3.75;;;;;;;17.72;87.24;100824.34;5178303;28;20064;-74
2022/10/05 10:15:56;;;;;;;7.65;3.80;;;;;;;17.61;87.20;100821.50;5181934;28;20510;-74
2022/10/05 10:19:02;;;;;;;7.50;3.60;;;;;;;17.79;87.79;100820.41;5180193;28;20504;-74
2022/10/05 10:22:13;;;;;;;5.78;3.33;;;;;;;18.00;88.07;100811.16;5180832;28;20032;-74
2022/10/05 10:24:57;;;;;;;7.45;3.55;;;;;;;17.86;87.37;100824.38;5134546;28;20077;-74
2022/10/05 10:27:46;;;;;;;6.35;3.25;;;;;;;17.80;86.29;100822.09;5176516;28;20415;-74
2022/10/05 10:30:39;;;;;;;6.97;3.50;;;;;;;17.77;87.16;100822.25;5178770;28;20038;-74
2022/10/05 10:33:30;;;;;;;7.97;3.58;;;;;;;17.93;87.83;100821.25;5178498;28;20052;-74
2022/10/05 10:36:22;;;;;;;6.32;3.60;;;;;;;17.87;86.42;100820.78;5197057;28;20029;-74
2022/10/05 10:39:19;;;;;;;9.13;4.32;;;;;;;17.50;86.34;100821.31;5179498;28;20495;-74
2022/10/05 10:42:27;;;;;;;6.22;3.42;;;;;;;17.51;86.27;100813.25;5179483;28;20570;-74
2022/10/05 10:45:06;;;;;;;8.52;3.78;;;;;;;17.65;86.40;100812.47;5180316;28;20025;-74
2022/10/05 10:47:53;;;;;;;6.43;3.70;;;;;;;17.62;87.02;100815.28;5196378;28;20125;-74
2022/10/05 10:50:31;;;;;;;5.70;3.67;;;;;;;17.74;87.79;100802.16;5181735;28;20484;-74
2022/10/05 10:53:40;;;;;;;7.15;3.42;;;;;;;17.73;87.40;100804.91;5181652;28;20523;-74
2022/10/05 10:56:28;;;;;;;6.82;3.97;;;;;;;17.74;87.52;100802.16;5181391;28;20022;-74
2022/10/05 10:59:07;;;;;;;6.88;3.60;;;;;;;17.65;88.06;100812.47;5182094;28;20084;-74
2022/10/05 11:01:59;;;;;;;6.75;3.40;;;;;;;17.68;88.49;100809.63;5181240;28;20438;-74
2022/10/05 11:04:57;;;;;;;11.10;4.00;;;;;;;17.66;86.34;100808.88;5180246;28;20723;-74
2022/10/05 11:07:35;;;;;;;7.47;3.42;;;;;;;17.49;88.13;100812.50;5179285;28;20491;-73
2022/10/05 11:10:18;;;;;;;7.70;3.92;;;;;;;17.58;86.63;100808.47;5181302;28;20121;-74
2022/10/05 11:13:26;;;;;;;6.28;3.33;;;;;;;17.36;88.15;100806.28;5178526;28;20065;-74
2022/10/05 11:16:23;;;;;;;7.18;3.60;;;;;;;17.29;90.67;100801.41;5180129;28;20037;-74
2022/10/05 11:19:32;;;;;;;5.55;3.60;;;;;;;17.22;88.46;100803.56;5179270;28;20710;-74
2022/10/05 11:22:05;;;;;;;6.55;3.13;;;;;;;17.00;90.23;100804.91;5180581;28;20418;-74
2022/10/05 11:24:49;;;;;;;7.47;3.33;;;;;;;17.15;89.28;100806.66;5180737;28;20083;-74
2022/10/05 11:27:40;;;;;;;4.85;3.30;;;;;;;16.98;88.93;100801.50;5177765;28;20603;-74
2022/10/05 11:30:13;;;;;;;6.28;3.03;;;;;;;17.13;89.47;100792.69;5177055;28;20040;-74
2022/10/05 11:32:53;;;;;;;6.15;3.22;;;;;;;17.09;90.95;100791.16;5180566;28;20029;-74
2022/10/05 11:35:35;;;;;;;6.00;3.05;;;;;;;17.10;89.62;100799.00;5180699;28;20049;-73
2022/10/05 11:38:11;;;;;;;7.68;3.60;;;;;;;16.96;89.45;100798.94;5180681;28;20483;-74
2022/10/05 11:41:21;;;;;;;5.15;3.30;;;;;;;16.90;89.13;100793.16;5177646;28;20073;-74
2022/10/05 11:44:14;;;;;;;5.90;3.05;;;;;;;17.25;89.47;100781.38;5171020;28;20046;-74
2022/10/05 11:46:59;;;;;;;6.78;3.10;;;;;;;17.12;89.21;100785.72;5177052;28;20487;-74
2022/10/05 11:49:41;;;;;;;6.45;3.00;;;;;;;17.17;88.55;100778.34;5179730;28;20037;-74
2022/10/05 11:52:20;;;;;;;6.22;3.13;;;;;;;17.11;88.14;100765.53;5207190;22;21051;-75
2022/10/05 11:55:14;;;;;;;4.72;2.83;;;;;;;16.93;88.84;100770.06;5200901;28;20033;-74
2022/10/05 11:57:53;;;;;;;4.40;2.90;;;;;;;17.14;88.06;100765.34;5218972;28;20063;-75
2022/10/05 12:00:33;;;;;;;5.30;2.58;;;;;;;17.26;88.40;100756.66;5222676;28;20028;-75
2022/10/05 12:03:28;;;;;;;5.38;2.72;;;;;;;17.25;88.55;100758.47;5233257;28;20020;-74
2022/10/05 12:06:10;;;;;;;5.15;2.90;;;;;;;17.24;87.35;100759.41;5240540;28;20050;-75
2022/10/05 12:09:02;;;;;;;4.50;2.38;;;;;;;17.42;87.31;100746.91;5224612;28;20032;-75
2022/10/05 12:12:04;;;;;;;5.85;2.58;;;;;;;17.32;86.13;100743.94;5242499;28;20027;-75
2022/10/05 12:14:41;;;;;;;4.25;2.90;;;;;;;17.39;88.00;100737.38;5241440;28;20452;-75
2022/10/05 12:17:23;;;;;;;4.20;2.50;;;;;;;17.47;87.37;100740.41;5239457;28;20048;-75
2022/10/05 12:19:58;;;;;;;4.97;2.70;;;;;;;17.26;86.51;100732.88;5243364;28;20028;-75
2022/10/05 12:22:47;;;;;;;4.82;2.47;;;;;;;17.45;87.31;100731.72;5223945;28;20108;-75
2022/10/05 12:25:41;;;;;;;4.25;2.50;;;;;;;17.25;87.00;100728.53;5238550;28;20470;-75
2022/10/05 12:28:16;;;;;;;5.22;2.85;;;;;;;17.19;88.39;100719.22;5239684;28;20458;-75
2022/10/05 12:30:49;;;;;;;5.40;2.58;;;;;;;17.34;87.24;100723.59;5243968;28;20024;-76
2022/10/05 12:33:56;;;;;;;6.00;2.45;;;;;;;17.38;86.21;100713.69;5243954;28;20648;-75
2022/10/05 12:36:26;;;;;;;;;;;;;;;17.37;87.02;100715.50;5242030;28;20029;-72
2022/10/05 12:39:11;;;;;;;5.53;2.67;;;;;;;17.50;85.42;100712.94;5243186;28;20343;-75
2022/10/05 12:41:47;;;;;;;5.07;2.30;;;;;;;17.33;86.26;100715.72;5244574;28;20296;-74
2022/10/05 12:44:38;;;;;;;10.70;2.80;;;;;;;17.33;86.76;100713.09;5226283;28;20110;-75
2022/10/05 12:47:08;;;;;;;5.35;2.40;;;;;;;17.37;86.63;100701.41;5225577;28;20074;-75
2022/10/05 12:49:45;;;;;;;5.35;2.67;;;;;;;17.38;86.11;100708.41;5243767;28;20099;-76
2022/10/05 12:52:47;;;;;;;4.28;2.30;;;;;;;17.55;85.59;100695.00;5240055;28;20032;-75
2022/10/05 12:55:25;;;;;;;7.47;2.30;;;;;;;17.54;85.13;100690.66;5204975;28;20298;-75